sensor_id;sensor_type;location;lat;lon;timestamp;P1;durP1;ratioP1;P2;durP2;ratioP2
15925;SDS011;8062;53.882;10.642;2023-07-13T00:01:15;0.30;;;0.30;;
15925;SDS011;8062;53.882;10.642;2023-07-13T00:02:35;0.30;;;0.30;;
15925;SDS011;8062;53.882;10.642;2023-07-13T00:03:55;0.23;;;0.23;;
15925;SDS011;8062;53.882;10.642;2023-07-13T00:05:16;0.40;;;0.40;;
15925;SDS011;8062;53.882;10.642;2023-07-13T00:06:35;0.30;;;0.30;;
15925;SDS011;8062;53.882;10.642;2023-07-13T00:07:55;0.40;;;0.40;;
15925;SDS011;8062;53.882;10.642;2023-07-13T00:09:14;0.30;;;0.30;;
15925;SDS011;8062;53.882;10.642;2023-07-13T00:10:38;0.20;;;0.20;;
15925;SDS011;8062;53.882;10.642;2023-07-13T00:11:59;0.20;;;0.20;;
15925;SDS011;8062;53.882;10.642;2023-07-13T00:13:19;0.30;;;0.30;;
15925;SDS011;8062;53.882;10.642;2023-07-13T00:14:39;0.23;;;0.23;;
15925;SDS011;8062;53.882;10.642;2023-07-13T00:15:59;0.23;;;0.23;;
15925;SDS011;8062;53.882;10.642;2023-07-13T00:17:20;0.20;;;0.20;;
15925;SDS011;8062;53.882;10.642;2023-07-13T00:18:39;0.33;;;0.33;;
15925;SDS011;8062;53.882;10.642;2023-07-13T00:19:59;0.27;;;0.27;;
15925;SDS011;8062;53.882;10.642;2023-07-13T00:21:18;0.30;;;0.30;;
15925;SDS011;8062;53.882;10.642;2023-07-13T00:22:38;0.30;;;0.30;;
15925;SDS011;8062;53.882;10.642;2023-07-13T00:23:58;0.30;;;0.30;;
15925;SDS011;8062;53.882;10.642;2023-07-13T00:25:19;0.40;;;0.40;;
15925;SDS011;8062;53.882;10.642;2023-07-13T00:26:40;0.30;;;0.30;;
15925;SDS011;8062;53.882;10.642;2023-07-13T00:28:04;0.30;;;0.30;;
15925;SDS011;8062;53.882;10.642;2023-07-13T00:29:25;0.33;;;0.33;;
15925;SDS011;8062;53.882;10.642;2023-07-13T00:30:45;0.30;;;0.30;;
15925;SDS011;8062;53.882;10.642;2023-07-13T00:32:05;0.20;;;0.20;;
15925;SDS011;8062;53.882;10.642;2023-07-13T00:33:27;0.33;;;0.33;;
15925;SDS011;8062;53.882;10.642;2023-07-13T00:34:47;0.30;;;0.30;;
15925;SDS011;8062;53.882;10.642;2023-07-13T00:36:07;0.23;;;0.23;;
15925;SDS011;8062;53.882;10.642;2023-07-13T00:37:27;0.40;;;0.40;;
15925;SDS011;8062;53.882;10.642;2023-07-13T00:38:47;0.30;;;0.30;;
15925;SDS011;8062;53.882;10.642;2023-07-13T00:40:07;0.30;;;0.30;;
15925;SDS011;8062;53.882;10.642;2023-07-13T00:41:28;0.20;;;0.20;;
15925;SDS011;8062;53.882;10.642;2023-07-13T00:42:47;0.37;;;0.37;;
15925;SDS011;8062;53.882;10.642;2023-07-13T00:44:12;0.27;;;0.27;;
15925;SDS011;8062;53.882;10.642;2023-07-13T00:46:53;0.20;;;0.20;;
15925;SDS011;8062;53.882;10.642;2023-07-13T00:48:21;0.30;;;0.30;;
15925;SDS011;8062;53.882;10.642;2023-07-13T00:49:45;0.20;;;0.20;;
15925;SDS011;8062;53.882;10.642;2023-07-13T00:51:04;0.20;;;0.20;;
15925;SDS011;8062;53.882;10.642;2023-07-13T00:52:24;0.20;;;0.20;;
15925;SDS011;8062;53.882;10.642;2023-07-13T00:53:44;0.20;;;0.20;;
15925;SDS011;8062;53.882;10.642;2023-07-13T00:55:04;0.20;;;0.20;;
15925;SDS011;8062;53.882;10.642;2023-07-13T00:56:24;0.20;;;0.20;;
15925;SDS011;8062;53.882;10.642;2023-07-13T00:57:45;0.20;;;0.20;;
15925;SDS011;8062;53.882;10.642;2023-07-13T00:59:05;0.10;;;0.10;;
15925;SDS011;8062;53.882;10.642;2023-07-13T01:00:26;0.20;;;0.20;;
15925;SDS011;8062;53.882;10.642;2023-07-13T01:01:48;0.20;;;0.20;;
15925;SDS011;8062;53.882;10.642;2023-07-13T01:03:08;0.10;;;0.10;;
15925;SDS011;8062;53.882;10.642;2023-07-13T01:04:27;0.10;;;0.10;;
15925;SDS011;8062;53.882;10.642;2023-07-13T01:05:48;0.20;;;0.20;;
15925;SDS011;8062;53.882;10.642;2023-07-13T01:07:08;0.10;;;0.10;;
15925;SDS011;8062;53.882;10.642;2023-07-13T01:08:29;0.20;;;0.20;;
15925;SDS011;8062;53.882;10.642;2023-07-13T01:09:48;0.17;;;0.17;;
15925;SDS011;8062;53.882;10.642;2023-07-13T01:11:08;0.10;;;0.10;;
15925;SDS011;8062;53.882;10.642;2023-07-13T01:12:28;0.10;;;0.10;;
15925;SDS011;8062;53.882;10.642;2023-07-13T01:13:50;0.20;;;0.20;;
15925;SDS011;8062;53.882;10.642;2023-07-13T01:17:03;0.20;;;0.20;;
15925;SDS011;8062;53.882;10.642;2023-07-13T01:18:27;0.20;;;0.20;;
15925;SDS011;8062;53.882;10.642;2023-07-13T01:19:48;0.20;;;0.20;;
15925;SDS011;8062;53.882;10.642;2023-07-13T01:21:07;0.20;;;0.20;;
15925;SDS011;8062;53.882;10.642;2023-07-13T01:22:27;0.20;;;0.20;;
15925;SDS011;8062;53.882;10.642;2023-07-13T01:23:46;0.23;;;0.23;;
15925;SDS011;8062;53.882;10.642;2023-07-13T01:25:07;0.20;;;0.20;;
15925;SDS011;8062;53.882;10.642;2023-07-13T01:26:27;0.20;;;0.20;;
15925;SDS011;8062;53.882;10.642;2023-07-13T01:27:47;0.20;;;0.20;;
15925;SDS011;8062;53.882;10.642;2023-07-13T01:29:06;0.20;;;0.20;;
15925;SDS011;8062;53.882;10.642;2023-07-13T01:30:26;0.23;;;0.23;;
15925;SDS011;8062;53.882;10.642;2023-07-13T01:31:47;0.20;;;0.20;;
15925;SDS011;8062;53.882;10.642;2023-07-13T01:33:07;0.20;;;0.20;;
15925;SDS011;8062;53.882;10.642;2023-07-13T01:34:28;0.20;;;0.20;;
15925;SDS011;8062;53.882;10.642;2023-07-13T01:35:48;0.20;;;0.20;;
15925;SDS011;8062;53.882;10.642;2023-07-13T01:37:09;0.20;;;0.20;;
15925;SDS011;8062;53.882;10.642;2023-07-13T01:38:29;0.20;;;0.20;;
15925;SDS011;8062;53.882;10.642;2023-07-13T01:39:49;0.20;;;0.20;;
15925;SDS011;8062;53.882;10.642;2023-07-13T01:41:09;0.10;;;0.10;;
15925;SDS011;8062;53.882;10.642;2023-07-13T01:42:28;0.20;;;0.20;;
15925;SDS011;8062;53.882;10.642;2023-07-13T01:43:48;0.30;;;0.30;;
15925;SDS011;8062;53.882;10.642;2023-07-13T01:45:07;0.20;;;0.20;;
15925;SDS011;8062;53.882;10.642;2023-07-13T01:46:27;0.20;;;0.20;;
15925;SDS011;8062;53.882;10.642;2023-07-13T01:47:47;0.20;;;0.20;;
15925;SDS011;8062;53.882;10.642;2023-07-13T01:49:06;0.20;;;0.20;;
15925;SDS011;8062;53.882;10.642;2023-07-13T01:50:26;0.20;;;0.20;;
15925;SDS011;8062;53.882;10.642;2023-07-13T01:51:46;0.20;;;0.20;;
15925;SDS011;8062;53.882;10.642;2023-07-13T01:53:06;0.20;;;0.20;;
15925;SDS011;8062;53.882;10.642;2023-07-13T01:54:26;0.20;;;0.20;;
15925;SDS011;8062;53.882;10.642;2023-07-13T01:55:46;0.20;;;0.20;;
15925;SDS011;8062;53.882;10.642;2023-07-13T01:57:07;0.23;;;0.23;;
15925;SDS011;8062;53.882;10.642;2023-07-13T01:58:27;0.20;;;0.20;;
15925;SDS011;8062;53.882;10.642;2023-07-13T01:59:46;0.20;;;0.20;;
15925;SDS011;8062;53.882;10.642;2023-07-13T02:01:06;0.20;;;0.20;;
15925;SDS011;8062;53.882;10.642;2023-07-13T02:02:25;0.20;;;0.20;;
15925;SDS011;8062;53.882;10.642;2023-07-13T02:03:45;0.20;;;0.20;;
15925;SDS011;8062;53.882;10.642;2023-07-13T02:05:06;0.30;;;0.30;;
15925;SDS011;8062;53.882;10.642;2023-07-13T02:06:26;0.30;;;0.30;;
15925;SDS011;8062;53.882;10.642;2023-07-13T02:07:46;0.20;;;0.20;;
15925;SDS011;8062;53.882;10.642;2023-07-13T02:09:06;0.20;;;0.20;;
15925;SDS011;8062;53.882;10.642;2023-07-13T02:10:26;0.23;;;0.23;;
15925;SDS011;8062;53.882;10.642;2023-07-13T02:11:45;0.30;;;0.30;;
15925;SDS011;8062;53.882;10.642;2023-07-13T02:13:05;0.20;;;0.20;;
15925;SDS011;8062;53.882;10.642;2023-07-13T02:14:26;0.20;;;0.20;;
15925;SDS011;8062;53.882;10.642;2023-07-13T02:15:45;0.30;;;0.30;;
15925;SDS011;8062;53.882;10.642;2023-07-13T02:17:05;0.20;;;0.20;;
15925;SDS011;8062;53.882;10.642;2023-07-13T02:18:25;0.20;;;0.20;;
15925;SDS011;8062;53.882;10.642;2023-07-13T02:19:44;0.20;;;0.20;;
15925;SDS011;8062;53.882;10.642;2023-07-13T02:21:04;0.23;;;0.23;;
15925;SDS011;8062;53.882;10.642;2023-07-13T02:22:24;0.20;;;0.20;;
15925;SDS011;8062;53.882;10.642;2023-07-13T02:23:44;0.30;;;0.30;;
15925;SDS011;8062;53.882;10.642;2023-07-13T02:25:03;0.37;;;0.37;;
15925;SDS011;8062;53.882;10.642;2023-07-13T02:26:24;0.30;;;0.30;;
15925;SDS011;8062;53.882;10.642;2023-07-13T02:27:43;0.20;;;0.20;;
15925;SDS011;8062;53.882;10.642;2023-07-13T02:29:03;0.30;;;0.30;;
15925;SDS011;8062;53.882;10.642;2023-07-13T02:30:23;0.30;;;0.30;;
15925;SDS011;8062;53.882;10.642;2023-07-13T02:31:46;0.20;;;0.20;;
15925;SDS011;8062;53.882;10.642;2023-07-13T02:33:06;0.27;;;0.27;;
15925;SDS011;8062;53.882;10.642;2023-07-13T02:34:25;0.30;;;0.30;;
15925;SDS011;8062;53.882;10.642;2023-07-13T02:35:45;0.20;;;0.20;;
15925;SDS011;8062;53.882;10.642;2023-07-13T02:37:04;0.30;;;0.30;;
15925;SDS011;8062;53.882;10.642;2023-07-13T02:38:24;0.30;;;0.30;;
15925;SDS011;8062;53.882;10.642;2023-07-13T02:39:44;0.20;;;0.20;;
15925;SDS011;8062;53.882;10.642;2023-07-13T02:41:04;0.20;;;0.20;;
15925;SDS011;8062;53.882;10.642;2023-07-13T02:42:25;0.20;;;0.20;;
15925;SDS011;8062;53.882;10.642;2023-07-13T02:43:44;0.20;;;0.20;;
15925;SDS011;8062;53.882;10.642;2023-07-13T02:45:04;0.10;;;0.10;;
15925;SDS011;8062;53.882;10.642;2023-07-13T02:46:24;0.20;;;0.20;;
15925;SDS011;8062;53.882;10.642;2023-07-13T02:47:45;0.27;;;0.27;;
15925;SDS011;8062;53.882;10.642;2023-07-13T02:49:04;0.30;;;0.30;;
15925;SDS011;8062;53.882;10.642;2023-07-13T02:50:24;0.23;;;0.23;;
15925;SDS011;8062;53.882;10.642;2023-07-13T02:51:44;0.30;;;0.30;;
15925;SDS011;8062;53.882;10.642;2023-07-13T02:53:03;0.13;;;0.13;;
15925;SDS011;8062;53.882;10.642;2023-07-13T02:54:23;0.20;;;0.20;;
15925;SDS011;8062;53.882;10.642;2023-07-13T02:55:42;0.30;;;0.30;;
15925;SDS011;8062;53.882;10.642;2023-07-13T02:57:06;0.20;;;0.20;;
15925;SDS011;8062;53.882;10.642;2023-07-13T02:58:25;0.30;;;0.30;;
15925;SDS011;8062;53.882;10.642;2023-07-13T02:59:45;0.20;;;0.20;;
15925;SDS011;8062;53.882;10.642;2023-07-13T03:01:09;0.30;;;0.30;;
15925;SDS011;8062;53.882;10.642;2023-07-13T03:02:31;0.20;;;0.20;;
15925;SDS011;8062;53.882;10.642;2023-07-13T03:03:51;0.20;;;0.20;;
15925;SDS011;8062;53.882;10.642;2023-07-13T03:05:12;0.20;;;0.20;;
15925;SDS011;8062;53.882;10.642;2023-07-13T03:06:33;0.30;;;0.30;;
15925;SDS011;8062;53.882;10.642;2023-07-13T03:07:53;0.20;;;0.20;;
15925;SDS011;8062;53.882;10.642;2023-07-13T03:09:14;0.20;;;0.20;;
15925;SDS011;8062;53.882;10.642;2023-07-13T03:10:40;0.27;;;0.27;;
15925;SDS011;8062;53.882;10.642;2023-07-13T03:12:03;0.20;;;0.20;;
15925;SDS011;8062;53.882;10.642;2023-07-13T03:13:24;0.30;;;0.30;;
15925;SDS011;8062;53.882;10.642;2023-07-13T03:14:44;0.20;;;0.20;;
15925;SDS011;8062;53.882;10.642;2023-07-13T03:16:04;0.30;;;0.30;;
15925;SDS011;8062;53.882;10.642;2023-07-13T03:17:24;0.20;;;0.20;;
15925;SDS011;8062;53.882;10.642;2023-07-13T03:18:45;0.20;;;0.20;;
15925;SDS011;8062;53.882;10.642;2023-07-13T03:20:07;0.30;;;0.30;;
15925;SDS011;8062;53.882;10.642;2023-07-13T03:21:27;0.30;;;0.30;;
15925;SDS011;8062;53.882;10.642;2023-07-13T03:22:46;0.27;;;0.27;;
15925;SDS011;8062;53.882;10.642;2023-07-13T03:24:07;0.20;;;0.20;;
15925;SDS011;8062;53.882;10.642;2023-07-13T03:25:26;0.30;;;0.30;;
15925;SDS011;8062;53.882;10.642;2023-07-13T03:26:47;0.20;;;0.20;;
15925;SDS011;8062;53.882;10.642;2023-07-13T03:28:06;0.30;;;0.30;;
15925;SDS011;8062;53.882;10.642;2023-07-13T03:29:26;0.30;;;0.30;;
15925;SDS011;8062;53.882;10.642;2023-07-13T03:30:46;0.20;;;0.20;;
15925;SDS011;8062;53.882;10.642;2023-07-13T03:32:06;0.20;;;0.20;;
15925;SDS011;8062;53.882;10.642;2023-07-13T03:33:26;0.30;;;0.30;;
15925;SDS011;8062;53.882;10.642;2023-07-13T03:34:45;0.20;;;0.20;;
15925;SDS011;8062;53.882;10.642;2023-07-13T03:36:06;0.20;;;0.20;;
15925;SDS011;8062;53.882;10.642;2023-07-13T03:37:29;0.20;;;0.20;;
15925;SDS011;8062;53.882;10.642;2023-07-13T03:38:52;0.40;;;0.40;;
15925;SDS011;8062;53.882;10.642;2023-07-13T03:40:16;0.23;;;0.23;;
15925;SDS011;8062;53.882;10.642;2023-07-13T03:41:38;0.23;;;0.23;;
15925;SDS011;8062;53.882;10.642;2023-07-13T03:42:58;0.20;;;0.20;;
15925;SDS011;8062;53.882;10.642;2023-07-13T03:44:18;0.30;;;0.30;;
15925;SDS011;8062;53.882;10.642;2023-07-13T03:45:40;0.33;;;0.33;;
15925;SDS011;8062;53.882;10.642;2023-07-13T03:47:00;0.30;;;0.30;;
15925;SDS011;8062;53.882;10.642;2023-07-13T03:48:20;0.30;;;0.30;;
15925;SDS011;8062;53.882;10.642;2023-07-13T03:49:39;0.30;;;0.30;;
15925;SDS011;8062;53.882;10.642;2023-07-13T03:50:59;0.53;;;0.53;;
15925;SDS011;8062;53.882;10.642;2023-07-13T03:52:19;0.33;;;0.33;;
15925;SDS011;8062;53.882;10.642;2023-07-13T03:53:39;0.33;;;0.33;;
15925;SDS011;8062;53.882;10.642;2023-07-13T03:55:01;0.43;;;0.43;;
15925;SDS011;8062;53.882;10.642;2023-07-13T03:56:21;0.40;;;0.40;;
15925;SDS011;8062;53.882;10.642;2023-07-13T03:57:40;0.50;;;0.50;;
15925;SDS011;8062;53.882;10.642;2023-07-13T03:59:01;0.53;;;0.53;;
15925;SDS011;8062;53.882;10.642;2023-07-13T04:00:22;0.30;;;0.30;;
15925;SDS011;8062;53.882;10.642;2023-07-13T04:01:43;0.57;;;0.57;;
15925;SDS011;8062;53.882;10.642;2023-07-13T04:03:05;0.50;;;0.50;;
15925;SDS011;8062;53.882;10.642;2023-07-13T04:04:25;0.50;;;0.50;;
15925;SDS011;8062;53.882;10.642;2023-07-13T04:05:46;0.40;;;0.40;;
15925;SDS011;8062;53.882;10.642;2023-07-13T04:07:06;0.30;;;0.30;;
15925;SDS011;8062;53.882;10.642;2023-07-13T04:08:27;0.37;;;0.37;;
15925;SDS011;8062;53.882;10.642;2023-07-13T04:09:48;0.47;;;0.47;;
15925;SDS011;8062;53.882;10.642;2023-07-13T04:11:07;0.37;;;0.37;;
15925;SDS011;8062;53.882;10.642;2023-07-13T04:12:27;0.37;;;0.37;;
15925;SDS011;8062;53.882;10.642;2023-07-13T04:13:47;0.47;;;0.47;;
15925;SDS011;8062;53.882;10.642;2023-07-13T04:15:07;0.50;;;0.50;;
15925;SDS011;8062;53.882;10.642;2023-07-13T04:16:27;0.40;;;0.40;;
15925;SDS011;8062;53.882;10.642;2023-07-13T04:17:46;0.57;;;0.57;;
15925;SDS011;8062;53.882;10.642;2023-07-13T04:19:06;0.53;;;0.53;;
15925;SDS011;8062;53.882;10.642;2023-07-13T04:20:26;0.50;;;0.50;;
15925;SDS011;8062;53.882;10.642;2023-07-13T04:21:45;0.47;;;0.47;;
15925;SDS011;8062;53.882;10.642;2023-07-13T04:23:05;0.60;;;0.60;;
15925;SDS011;8062;53.882;10.642;2023-07-13T04:24:25;0.50;;;0.50;;
15925;SDS011;8062;53.882;10.642;2023-07-13T04:25:48;0.43;;;0.43;;
15925;SDS011;8062;53.882;10.642;2023-07-13T04:27:11;0.30;;;0.30;;
15925;SDS011;8062;53.882;10.642;2023-07-13T04:28:30;0.33;;;0.33;;
15925;SDS011;8062;53.882;10.642;2023-07-13T04:29:50;0.40;;;0.40;;
15925;SDS011;8062;53.882;10.642;2023-07-13T04:31:10;0.23;;;0.23;;
15925;SDS011;8062;53.882;10.642;2023-07-13T04:32:30;0.33;;;0.33;;
15925;SDS011;8062;53.882;10.642;2023-07-13T04:33:49;0.30;;;0.30;;
15925;SDS011;8062;53.882;10.642;2023-07-13T04:35:09;0.20;;;0.20;;
15925;SDS011;8062;53.882;10.642;2023-07-13T04:36:29;0.20;;;0.20;;
15925;SDS011;8062;53.882;10.642;2023-07-13T04:37:48;0.23;;;0.23;;
15925;SDS011;8062;53.882;10.642;2023-07-13T04:39:09;0.20;;;0.20;;
15925;SDS011;8062;53.882;10.642;2023-07-13T04:40:29;0.30;;;0.30;;
15925;SDS011;8062;53.882;10.642;2023-07-13T04:41:49;0.20;;;0.20;;
15925;SDS011;8062;53.882;10.642;2023-07-13T04:43:08;0.20;;;0.20;;
15925;SDS011;8062;53.882;10.642;2023-07-13T04:44:27;0.20;;;0.20;;
15925;SDS011;8062;53.882;10.642;2023-07-13T04:45:47;0.20;;;0.20;;
15925;SDS011;8062;53.882;10.642;2023-07-13T04:47:07;0.10;;;0.10;;
15925;SDS011;8062;53.882;10.642;2023-07-13T04:48:26;0.20;;;0.20;;
15925;SDS011;8062;53.882;10.642;2023-07-13T04:49:46;0.20;;;0.20;;
15925;SDS011;8062;53.882;10.642;2023-07-13T04:51:06;0.20;;;0.20;;
15925;SDS011;8062;53.882;10.642;2023-07-13T04:52:25;0.10;;;0.10;;
15925;SDS011;8062;53.882;10.642;2023-07-13T04:53:45;0.20;;;0.20;;
15925;SDS011;8062;53.882;10.642;2023-07-13T04:55:05;0.10;;;0.10;;
15925;SDS011;8062;53.882;10.642;2023-07-13T04:56:25;0.20;;;0.20;;
15925;SDS011;8062;53.882;10.642;2023-07-13T04:57:45;0.20;;;0.20;;
15925;SDS011;8062;53.882;10.642;2023-07-13T04:59:05;0.20;;;0.20;;
15925;SDS011;8062;53.882;10.642;2023-07-13T05:00:25;0.20;;;0.20;;
15925;SDS011;8062;53.882;10.642;2023-07-13T05:01:45;0.20;;;0.20;;
15925;SDS011;8062;53.882;10.642;2023-07-13T05:03:04;0.20;;;0.20;;
15925;SDS011;8062;53.882;10.642;2023-07-13T05:04:24;0.20;;;0.20;;
15925;SDS011;8062;53.882;10.642;2023-07-13T05:05:53;0.30;;;0.30;;
15925;SDS011;8062;53.882;10.642;2023-07-13T05:07:14;0.20;;;0.20;;
15925;SDS011;8062;53.882;10.642;2023-07-13T05:08:34;0.20;;;0.20;;
15925;SDS011;8062;53.882;10.642;2023-07-13T05:09:53;0.20;;;0.20;;
15925;SDS011;8062;53.882;10.642;2023-07-13T05:11:13;0.20;;;0.20;;
15925;SDS011;8062;53.882;10.642;2023-07-13T05:12:33;0.10;;;0.10;;
15925;SDS011;8062;53.882;10.642;2023-07-13T05:13:53;0.10;;;0.10;;
15925;SDS011;8062;53.882;10.642;2023-07-13T05:15:12;0.30;;;0.30;;
15925;SDS011;8062;53.882;10.642;2023-07-13T05:16:32;0.10;;;0.10;;
15925;SDS011;8062;53.882;10.642;2023-07-13T05:17:51;0.10;;;0.10;;
15925;SDS011;8062;53.882;10.642;2023-07-13T05:19:11;0.20;;;0.20;;
15925;SDS011;8062;53.882;10.642;2023-07-13T05:20:31;0.20;;;0.20;;
15925;SDS011;8062;53.882;10.642;2023-07-13T05:21:50;0.20;;;0.20;;
15925;SDS011;8062;53.882;10.642;2023-07-13T05:23:10;0.10;;;0.10;;
15925;SDS011;8062;53.882;10.642;2023-07-13T05:24:29;0.20;;;0.20;;
15925;SDS011;8062;53.882;10.642;2023-07-13T05:25:49;0.20;;;0.20;;
15925;SDS011;8062;53.882;10.642;2023-07-13T05:27:08;0.10;;;0.10;;
15925;SDS011;8062;53.882;10.642;2023-07-13T05:28:29;0.10;;;0.10;;
15925;SDS011;8062;53.882;10.642;2023-07-13T05:29:49;0.10;;;0.10;;
15925;SDS011;8062;53.882;10.642;2023-07-13T05:31:09;0.17;;;0.17;;
15925;SDS011;8062;53.882;10.642;2023-07-13T05:32:29;0.30;;;0.30;;
15925;SDS011;8062;53.882;10.642;2023-07-13T05:33:49;0.10;;;0.10;;
15925;SDS011;8062;53.882;10.642;2023-07-13T05:35:08;0.20;;;0.20;;
15925;SDS011;8062;53.882;10.642;2023-07-13T05:36:27;0.10;;;0.10;;
15925;SDS011;8062;53.882;10.642;2023-07-13T05:37:47;0.20;;;0.20;;
15925;SDS011;8062;53.882;10.642;2023-07-13T05:39:07;0.10;;;0.10;;
15925;SDS011;8062;53.882;10.642;2023-07-13T05:40:26;0.17;;;0.17;;
15925;SDS011;8062;53.882;10.642;2023-07-13T05:41:46;0.10;;;0.10;;
15925;SDS011;8062;53.882;10.642;2023-07-13T05:43:06;0.20;;;0.20;;
15925;SDS011;8062;53.882;10.642;2023-07-13T05:44:25;0.17;;;0.17;;
15925;SDS011;8062;53.882;10.642;2023-07-13T05:45:45;0.13;;;0.13;;
15925;SDS011;8062;53.882;10.642;2023-07-13T05:47:04;0.10;;;0.10;;
15925;SDS011;8062;53.882;10.642;2023-07-13T05:48:24;0.10;;;0.10;;
15925;SDS011;8062;53.882;10.642;2023-07-13T05:49:44;0.17;;;0.17;;
15925;SDS011;8062;53.882;10.642;2023-07-13T05:51:03;0.20;;;0.20;;
15925;SDS011;8062;53.882;10.642;2023-07-13T05:52:23;0.20;;;0.20;;
15925;SDS011;8062;53.882;10.642;2023-07-13T05:53:42;0.20;;;0.20;;
15925;SDS011;8062;53.882;10.642;2023-07-13T05:55:02;0.20;;;0.20;;
15925;SDS011;8062;53.882;10.642;2023-07-13T05:56:22;0.20;;;0.20;;
15925;SDS011;8062;53.882;10.642;2023-07-13T05:57:42;0.10;;;0.10;;
15925;SDS011;8062;53.882;10.642;2023-07-13T05:59:01;0.10;;;0.10;;
15925;SDS011;8062;53.882;10.642;2023-07-13T06:00:21;0.20;;;0.20;;
15925;SDS011;8062;53.882;10.642;2023-07-13T06:01:40;0.10;;;0.10;;
15925;SDS011;8062;53.882;10.642;2023-07-13T06:03:00;0.10;;;0.10;;
15925;SDS011;8062;53.882;10.642;2023-07-13T06:04:20;0.10;;;0.10;;
15925;SDS011;8062;53.882;10.642;2023-07-13T06:05:40;0.20;;;0.20;;
15925;SDS011;8062;53.882;10.642;2023-07-13T06:07:00;0.10;;;0.10;;
15925;SDS011;8062;53.882;10.642;2023-07-13T06:08:19;0.10;;;0.10;;
15925;SDS011;8062;53.882;10.642;2023-07-13T06:09:39;0.20;;;0.20;;
15925;SDS011;8062;53.882;10.642;2023-07-13T06:11:02;0.10;;;0.10;;
15925;SDS011;8062;53.882;10.642;2023-07-13T06:12:42;0.10;;;0.10;;
15925;SDS011;8062;53.882;10.642;2023-07-13T06:14:02;0.20;;;0.20;;
15925;SDS011;8062;53.882;10.642;2023-07-13T06:15:23;0.10;;;0.10;;
15925;SDS011;8062;53.882;10.642;2023-07-13T06:16:42;0.10;;;0.10;;
15925;SDS011;8062;53.882;10.642;2023-07-13T06:18:02;0.20;;;0.20;;
15925;SDS011;8062;53.882;10.642;2023-07-13T06:19:21;0.20;;;0.20;;
15925;SDS011;8062;53.882;10.642;2023-07-13T06:20:41;0.20;;;0.20;;
15925;SDS011;8062;53.882;10.642;2023-07-13T06:22:00;0.20;;;0.20;;
15925;SDS011;8062;53.882;10.642;2023-07-13T06:23:20;0.20;;;0.20;;
15925;SDS011;8062;53.882;10.642;2023-07-13T06:24:39;0.20;;;0.20;;
15925;SDS011;8062;53.882;10.642;2023-07-13T06:25:59;0.10;;;0.10;;
15925;SDS011;8062;53.882;10.642;2023-07-13T06:27:18;0.10;;;0.10;;
15925;SDS011;8062;53.882;10.642;2023-07-13T06:28:38;0.20;;;0.20;;
15925;SDS011;8062;53.882;10.642;2023-07-13T06:29:58;0.10;;;0.10;;
15925;SDS011;8062;53.882;10.642;2023-07-13T06:31:18;0.10;;;0.10;;
15925;SDS011;8062;53.882;10.642;2023-07-13T06:32:37;0.10;;;0.10;;
15925;SDS011;8062;53.882;10.642;2023-07-13T06:33:57;0.10;;;0.10;;
15925;SDS011;8062;53.882;10.642;2023-07-13T06:35:16;0.10;;;0.10;;
15925;SDS011;8062;53.882;10.642;2023-07-13T06:36:36;0.10;;;0.10;;
15925;SDS011;8062;53.882;10.642;2023-07-13T06:37:57;0.10;;;0.10;;
15925;SDS011;8062;53.882;10.642;2023-07-13T06:39:16;0.10;;;0.10;;
15925;SDS011;8062;53.882;10.642;2023-07-13T06:40:36;0.20;;;0.20;;
15925;SDS011;8062;53.882;10.642;2023-07-13T06:41:55;0.10;;;0.10;;
15925;SDS011;8062;53.882;10.642;2023-07-13T06:43:14;0.20;;;0.20;;
15925;SDS011;8062;53.882;10.642;2023-07-13T06:44:34;0.10;;;0.10;;
15925;SDS011;8062;53.882;10.642;2023-07-13T06:45:54;0.10;;;0.10;;
15925;SDS011;8062;53.882;10.642;2023-07-13T06:47:14;0.20;;;0.20;;
15925;SDS011;8062;53.882;10.642;2023-07-13T06:48:34;0.13;;;0.13;;
15925;SDS011;8062;53.882;10.642;2023-07-13T06:49:53;0.20;;;0.20;;
15925;SDS011;8062;53.882;10.642;2023-07-13T06:51:13;0.17;;;0.17;;
15925;SDS011;8062;53.882;10.642;2023-07-13T06:52:33;0.10;;;0.10;;
15925;SDS011;8062;53.882;10.642;2023-07-13T06:53:52;0.13;;;0.13;;
15925;SDS011;8062;53.882;10.642;2023-07-13T06:55:11;0.10;;;0.10;;
15925;SDS011;8062;53.882;10.642;2023-07-13T06:56:31;0.10;;;0.10;;
15925;SDS011;8062;53.882;10.642;2023-07-13T06:57:51;0.20;;;0.20;;
15925;SDS011;8062;53.882;10.642;2023-07-13T06:59:10;0.10;;;0.10;;
15925;SDS011;8062;53.882;10.642;2023-07-13T07:00:30;0.10;;;0.10;;
15925;SDS011;8062;53.882;10.642;2023-07-13T07:01:49;0.10;;;0.10;;
15925;SDS011;8062;53.882;10.642;2023-07-13T07:03:09;0.10;;;0.10;;
15925;SDS011;8062;53.882;10.642;2023-07-13T07:04:28;0.10;;;0.10;;
15925;SDS011;8062;53.882;10.642;2023-07-13T07:05:48;0.27;;;0.27;;
15925;SDS011;8062;53.882;10.642;2023-07-13T07:07:08;0.10;;;0.10;;
15925;SDS011;8062;53.882;10.642;2023-07-13T07:08:27;0.10;;;0.10;;
15925;SDS011;8062;53.882;10.642;2023-07-13T07:09:47;0.20;;;0.20;;
15925;SDS011;8062;53.882;10.642;2023-07-13T07:11:11;0.10;;;0.10;;
15925;SDS011;8062;53.882;10.642;2023-07-13T07:12:33;0.10;;;0.10;;
15925;SDS011;8062;53.882;10.642;2023-07-13T07:13:53;0.10;;;0.10;;
15925;SDS011;8062;53.882;10.642;2023-07-13T07:15:13;0.10;;;0.10;;
15925;SDS011;8062;53.882;10.642;2023-07-13T07:16:33;0.10;;;0.10;;
15925;SDS011;8062;53.882;10.642;2023-07-13T07:17:52;0.13;;;0.13;;
15925;SDS011;8062;53.882;10.642;2023-07-13T07:19:12;0.10;;;0.10;;
15925;SDS011;8062;53.882;10.642;2023-07-13T07:20:31;0.10;;;0.10;;
15925;SDS011;8062;53.882;10.642;2023-07-13T07:21:51;0.10;;;0.10;;
15925;SDS011;8062;53.882;10.642;2023-07-13T07:23:11;0.10;;;0.10;;
15925;SDS011;8062;53.882;10.642;2023-07-13T07:24:30;0.17;;;0.17;;
15925;SDS011;8062;53.882;10.642;2023-07-13T07:25:49;0.10;;;0.10;;
15925;SDS011;8062;53.882;10.642;2023-07-13T07:27:10;0.10;;;0.10;;
15925;SDS011;8062;53.882;10.642;2023-07-13T07:28:30;0.10;;;0.10;;
15925;SDS011;8062;53.882;10.642;2023-07-13T07:29:50;0.10;;;0.10;;
15925;SDS011;8062;53.882;10.642;2023-07-13T07:31:09;0.10;;;0.10;;
15925;SDS011;8062;53.882;10.642;2023-07-13T07:32:30;0.20;;;0.20;;
15925;SDS011;8062;53.882;10.642;2023-07-13T07:33:49;0.10;;;0.10;;
15925;SDS011;8062;53.882;10.642;2023-07-13T07:35:09;0.20;;;0.20;;
15925;SDS011;8062;53.882;10.642;2023-07-13T07:36:29;0.30;;;0.30;;
15925;SDS011;8062;53.882;10.642;2023-07-13T07:37:48;0.30;;;0.30;;
15925;SDS011;8062;53.882;10.642;2023-07-13T07:39:08;0.20;;;0.20;;
15925;SDS011;8062;53.882;10.642;2023-07-13T07:40:27;0.20;;;0.20;;
15925;SDS011;8062;53.882;10.642;2023-07-13T07:41:47;0.27;;;0.27;;
15925;SDS011;8062;53.882;10.642;2023-07-13T07:43:07;0.13;;;0.13;;
15925;SDS011;8062;53.882;10.642;2023-07-13T07:44:27;0.20;;;0.20;;
15925;SDS011;8062;53.882;10.642;2023-07-13T07:45:47;0.22;;;0.22;;
15925;SDS011;8062;53.882;10.642;2023-07-13T07:47:07;0.20;;;0.20;;
15925;SDS011;8062;53.882;10.642;2023-07-13T07:48:27;0.20;;;0.20;;
15925;SDS011;8062;53.882;10.642;2023-07-13T07:49:46;0.20;;;0.20;;
15925;SDS011;8062;53.882;10.642;2023-07-13T07:51:06;0.20;;;0.20;;
15925;SDS011;8062;53.882;10.642;2023-07-13T07:52:26;0.20;;;0.20;;
15925;SDS011;8062;53.882;10.642;2023-07-13T07:53:45;0.30;;;0.30;;
15925;SDS011;8062;53.882;10.642;2023-07-13T07:55:06;0.47;;;0.47;;
15925;SDS011;8062;53.882;10.642;2023-07-13T07:56:26;0.38;;;0.38;;
15925;SDS011;8062;53.882;10.642;2023-07-13T07:57:45;0.40;;;0.40;;
15925;SDS011;8062;53.882;10.642;2023-07-13T07:59:05;0.35;;;0.35;;
15925;SDS011;8062;53.882;10.642;2023-07-13T08:00:24;0.30;;;0.30;;
15925;SDS011;8062;53.882;10.642;2023-07-13T08:01:44;0.40;;;0.40;;
15925;SDS011;8062;53.882;10.642;2023-07-13T08:03:05;0.50;;;0.50;;
15925;SDS011;8062;53.882;10.642;2023-07-13T08:04:24;0.40;;;0.40;;
15925;SDS011;8062;53.882;10.642;2023-07-13T08:05:44;0.30;;;0.30;;
15925;SDS011;8062;53.882;10.642;2023-07-13T08:07:03;0.40;;;0.40;;